Time;durP1;ratioP1;P1;durP2;ratioP2;P2;SDS_P1;SDS_P2;PMS_P1;PMS_P2;Temp;Humidity;BMP_temperature;BMP_pressure;BME280_temperature;BME280_humidity;BME280_pressure;Samples;Min_cycle;Max_cycle;Signal;HPM_P1;HPM_P2
2021/06/17 00:01:42;;;;;;;;;5.00;5.00;;;;;;;;3724974;37;18253;-65
2021/06/17 00:04:10;;;;;;;;;5.25;5.25;;;;;;;;3724702;37;18223;-67
2021/06/17 00:06:36;;;;;;;;;6.00;6.00;;;;;;;;3724655;37;18255;-67
2021/06/17 00:09:02;;;;;;;;;7.00;7.00;;;;;;;;3724858;37;20983;-68
2021/06/17 00:11:30;;;;;;;;;6.00;6.00;;;;;;;;3724910;37;20995;-67
2021/06/17 00:13:56;;;;;;;;;6.00;6.00;;;;;;;;3724435;37;20971;-68
2021/06/17 00:16:22;;;;;;;;;5.50;5.50;;;;;;;;3724796;37;21004;-68
2021/06/17 00:18:48;;;;;;;;;6.50;6.50;;;;;;;;3724833;38;20990;-68
2021/06/17 00:21:16;;;;;;;;;5.00;5.00;;;;;;;;3724863;37;20998;-69
2021/06/17 00:23:43;;;;;;;;;4.00;4.00;;;;;;;;3724852;37;20980;-68
2021/06/17 00:26:09;;;;;;;;;4.50;4.50;;;;;;;;3724224;37;20981;-68
2021/06/17 00:28:37;;;;;;;;;4.25;4.25;;;;;;;;3724409;37;20985;-67
2021/06/17 00:31:03;;;;;;;;;6.00;5.75;;;;;;;;3724605;38;18196;-68
2021/06/17 00:33:33;;;;;;;;;5.00;5.00;;;;;;;;3724641;38;20961;-69
2021/06/17 00:35:59;;;;;;;;;5.00;5.00;;;;;;;;3724313;37;20963;-68
2021/06/17 00:38:25;;;;;;;;;3.25;3.25;;;;;;;;3724764;37;20941;-68
2021/06/17 00:40:53;;;;;;;;;4.00;4.00;;;;;;;;3724522;37;20952;-68
2021/06/17 00:43:19;;;;;;;;;4.25;4.25;;;;;;;;3724827;37;18186;-69
2021/06/17 00:45:46;;;;;;;;;4.00;4.00;;;;;;;;3724779;37;20936;-67
2021/06/17 00:48:13;;;;;;;;;6.00;5.00;;;;;;;;3724897;37;20955;-68
2021/06/17 00:50:50;;;;;;;;;5.00;5.00;;;;;;;;3724939;37;20984;-67
2021/06/17 00:53:19;;;;;;;;;5.75;5.75;;;;;;;;3724540;38;20919;-67
2021/06/17 00:55:45;;;;;;;;;5.00;5.00;;;;;;;;3724464;38;20926;-67
2021/06/17 00:58:13;;;;;;;;;5.00;4.25;;;;;;;;3724996;38;20944;-68
2021/06/17 01:00:39;;;;;;;;;5.00;4.25;;;;;;;;3724895;37;20940;-68
2021/06/17 01:03:06;;;;;;;;;5.25;5.25;;;;;;;;3725112;37;20922;-67
2021/06/17 01:05:31;;;;;;;;;5.00;5.00;;;;;;;;3725107;38;20910;-68
2021/06/17 01:08:13;;;;;;;;;7.00;7.00;;;;;;;;3725073;37;20981;-68
2021/06/17 01:11:00;;;;;;;;;4.00;4.00;;;;;;;;3725860;37;20909;-68
2021/06/17 01:13:47;;;;;;;;;4.50;4.50;;;;;;;;3741055;38;20947;-68
2021/06/17 01:16:35;;;;;;;;;4.25;4.25;;;;;;;;3741934;37;20962;-68
2021/06/17 01:19:22;;;;;;;;;5.00;5.00;;;;;;;;3741178;37;20934;-67
2021/06/17 01:22:11;;;;;;;;;5.75;5.75;;;;;;;;3725417;38;20940;-67
2021/06/17 01:24:55;;;;;;;;;4.75;4.75;;;;;;;;3724358;38;20897;-68
2021/06/17 01:27:57;;;;;;;;;5.50;5.25;;;;;;;;3724907;37;20925;-67
2021/06/17 01:30:24;;;;;;;;;4.00;4.00;;;;;;;;3724956;38;20906;-67
2021/06/17 01:32:55;;;;;;;;;6.00;6.00;;;;;;;;3724862;38;20971;-67
2021/06/17 01:35:24;;;;;;;;;6.75;6.75;;;;;;;;3724424;37;20876;-68
2021/06/17 01:37:53;;;;;;;;;6.00;6.00;;;;;;;;3724559;37;20903;-66
2021/06/17 01:40:20;;;;;;;;;8.25;7.50;;;;;;;;3724551;37;20859;-66
2021/06/17 01:42:47;;;;;;;;;6.00;6.00;;;;;;;;3724857;37;20894;-67
2021/06/17 01:45:15;;;;;;;;;5.00;5.00;;;;;;;;3724146;38;20880;-66
2021/06/17 01:47:51;;;;;;;;;6.00;6.00;;;;;;;;3723896;38;20895;-67
2021/06/17 01:50:25;;;;;;;;;7.50;7.00;;;;;;;;3724441;37;20845;-66
2021/06/17 01:52:55;;;;;;;;;5.25;5.25;;;;;;;;3724160;37;20859;-67
2021/06/17 01:55:34;;;;;;;;;6.50;6.50;;;;;;;;3724362;38;20844;-66
2021/06/17 01:58:02;;;;;;;;;7.00;7.00;;;;;;;;3724518;38;20845;-66
2021/06/17 02:00:28;;;;;;;;;5.25;5.25;;;;;;;;3724198;37;20842;-66
2021/06/17 02:02:55;;;;;;;;;6.25;6.25;;;;;;;;3724424;37;20844;-66
2021/06/17 02:05:25;;;;;;;;;6.00;6.00;;;;;;;;3724240;37;20838;-67
2021/06/17 02:08:02;;;;;;;;;8.00;7.25;;;;;;;;3724245;37;20864;-66
2021/06/17 02:10:29;;;;;;;;;7.25;7.25;;;;;;;;3724207;38;20840;-67
2021/06/17 02:13:03;;;;;;;;;6.00;6.00;;;;;;;;3724420;38;20864;-67
2021/06/17 02:15:31;;;;;;;;;6.75;6.00;;;;;;;;3724971;37;20843;-67
2021/06/17 02:17:58;;;;;;;;;7.00;7.00;;;;;;;;3724300;37;20838;-68
2021/06/17 02:20:24;;;;;;;;;5.00;5.00;;;;;;;;3724646;37;20836;-68
2021/06/17 02:22:52;;;;;;;;;5.00;5.00;;;;;;;;3724706;37;20847;-67
2021/06/17 02:25:20;;;;;;;;;7.00;7.00;;;;;;;;3725079;37;20732;-68
2021/06/17 02:27:48;;;;;;;;;7.00;7.00;;;;;;;;3727939;38;20809;-67
2021/06/17 02:30:15;;;;;;;;;8.25;8.25;;;;;;;;3725696;37;20796;-67
2021/06/17 02:32:48;;;;;;;;;9.00;9.00;;;;;;;;3724490;38;20837;-67
2021/06/17 02:35:19;;;;;;;;;8.75;7.75;;;;;;;;3724695;38;20798;-68
2021/06/17 02:37:45;;;;;;;;;9.00;8.25;;;;;;;;3724265;37;20811;-68
2021/06/17 02:40:13;;;;;;;;;6.25;6.25;;;;;;;;3724707;37;20831;-67
2021/06/17 02:42:41;;;;;;;;;6.75;6.00;;;;;;;;3724254;37;20799;-68
2021/06/17 02:45:07;;;;;;;;;9.75;8.25;;;;;;;;3724363;37;20803;-68
2021/06/17 02:47:34;;;;;;;;;6.00;6.00;;;;;;;;3724660;37;20830;-69
2021/06/17 02:50:00;;;;;;;;;7.75;7.75;;;;;;;;3724465;38;20782;-70
2021/06/17 02:52:26;;;;;;;;;9.00;8.25;;;;;;;;3724221;38;20799;-67
2021/06/17 02:54:53;;;;;;;;;9.25;9.25;;;;;;;;3724578;37;18004;-67
2021/06/17 02:57:25;;;;;;;;;9.00;9.00;;;;;;;;3724880;37;17999;-70
2021/06/17 03:00:01;;;;;;;;;11.25;10.25;;;;;;;;3724588;37;20815;-70
2021/06/17 03:02:35;;;;;;;;;10.25;10.25;;;;;;;;3724466;37;20803;-70
2021/06/17 03:05:18;;;;;;;;;10.25;10.00;;;;;;;;3724931;37;20826;-69
2021/06/17 03:07:51;;;;;;;;;10.00;10.00;;;;;;;;3724288;37;20783;-69
2021/06/17 03:10:23;;;;;;;;;10.00;9.25;;;;;;;;3724671;38;20826;-69
2021/06/17 03:12:51;;;;;;;;;12.25;12.25;;;;;;;;3724546;37;20788;-68
2021/06/17 03:15:19;;;;;;;;;8.25;8.25;;;;;;;;3724610;37;20811;-69
2021/06/17 03:17:48;;;;;;;;;11.50;11.50;;;;;;;;3724180;38;20749;-68
2021/06/17 03:20:17;;;;;;;;;8.00;8.00;;;;;;;;3730618;37;20775;-68
2021/06/17 03:22:46;;;;;;;;;10.00;10.00;;;;;;;;3730902;38;20651;-67
2021/06/17 03:25:14;;;;;;;;;11.25;11.25;;;;;;;;3726087;38;20801;-68
2021/06/17 03:27:41;;;;;;;;;12.00;12.00;;;;;;;;3726049;38;20815;-68
2021/06/17 03:30:10;;;;;;;;;9.50;9.50;;;;;;;;3732522;37;20789;-68
2021/06/17 03:32:40;;;;;;;;;7.25;7.25;;;;;;;;3728671;38;20795;-68
2021/06/17 03:35:07;;;;;;;;;13.75;12.75;;;;;;;;3724963;37;20742;-65
2021/06/17 03:37:35;;;;;;;;;11.00;11.00;;;;;;;;3724602;38;20806;-68
2021/06/17 03:40:06;;;;;;;;;13.75;13.75;;;;;;;;3724403;38;20812;-67
2021/06/17 03:42:34;;;;;;;;;13.00;12.00;;;;;;;;3724505;37;20822;-67
2021/06/17 03:45:02;;;;;;;;;9.00;9.00;;;;;;;;3724304;37;20812;-67
2021/06/17 03:47:29;;;;;;;;;11.75;11.00;;;;;;;;3724331;38;20664;-66
2021/06/17 03:49:56;;;;;;;;;11.25;10.00;;;;;;;;3724667;37;20791;-67
2021/06/17 03:52:22;;;;;;;;;13.50;13.25;;;;;;;;3724732;37;20762;-67
2021/06/17 03:54:49;;;;;;;;;12.50;12.50;;;;;;;;3724374;37;20776;-67
2021/06/17 03:57:19;;;;;;;;;15.25;15.25;;;;;;;;3724690;38;20694;-69
2021/06/17 03:59:45;;;;;;;;;15.50;15.50;;;;;;;;3724682;37;20782;-67
2021/06/17 04:02:12;;;;;;;;;14.50;14.25;;;;;;;;3724690;38;20708;-67
2021/06/17 04:04:40;;;;;;;;;15.25;14.50;;;;;;;;3724441;37;20683;-66
2021/06/17 04:07:09;;;;;;;;;14.50;14.50;;;;;;;;3724219;38;20685;-68
2021/06/17 04:09:40;;;;;;;;;15.50;15.00;;;;;;;;3724257;37;20655;-67
2021/06/17 04:12:16;;;;;;;;;14.25;14.25;;;;;;;;3724430;38;20644;-68
2021/06/17 04:14:44;;;;;;;;;14.50;14.50;;;;;;;;3724680;38;20629;-68
2021/06/17 04:17:17;;;;;;;;;18.00;16.50;;;;;;;;3724491;38;20649;-67
2021/06/17 04:19:44;;;;;;;;;16.00;16.00;;;;;;;;3724437;38;20620;-67
2021/06/17 04:22:12;;;;;;;;;11.50;10.50;;;;;;;;3724712;38;20634;-68
2021/06/17 04:24:42;;;;;;;;;17.00;16.25;;;;;;;;3724969;38;20613;-68
2021/06/17 04:27:10;;;;;;;;;15.50;15.50;;;;;;;;3724913;37;20620;-68
2021/06/17 04:29:39;;;;;;;;;14.75;14.75;;;;;;;;3724376;37;20660;-68
2021/06/17 04:32:09;;;;;;;;;14.00;14.00;;;;;;;;3724701;37;20702;-68
2021/06/17 04:34:36;;;;;;;;;14.75;13.75;;;;;;;;3724396;38;20694;-68
2021/06/17 04:37:05;;;;;;;;;15.25;15.25;;;;;;;;3724764;38;20608;-67
2021/06/17 04:39:32;;;;;;;;;14.50;14.50;;;;;;;;3724894;37;20677;-68
2021/06/17 04:41:58;;;;;;;;;17.00;16.25;;;;;;;;3724890;37;20537;-67
2021/06/17 04:44:24;;;;;;;;;14.75;14.75;;;;;;;;3724598;37;20642;-66
2021/06/17 04:46:51;;;;;;;;;15.50;14.75;;;;;;;;3724906;37;20588;-67
2021/06/17 04:49:19;;;;;;;;;17.75;15.00;;;;;;;;3724549;37;20690;-66
2021/06/17 04:51:47;;;;;;;;;14.50;14.50;;;;;;;;3724224;37;20597;-68
2021/06/17 04:54:23;;;;;;;;;18.25;18.25;;;;;;;;3724298;37;20580;-69
2021/06/17 04:56:49;;;;;;;;;15.50;15.50;;;;;;;;3724393;37;20576;-67
2021/06/17 04:59:15;;;;;;;;;13.50;13.50;;;;;;;;3725101;37;20643;-66
2021/06/17 05:01:42;;;;;;;;;12.25;12.25;;;;;;;;3724824;37;17846;-70
2021/06/17 05:04:08;;;;;;;;;12.50;11.25;;;;;;;;3724859;37;20666;-68
2021/06/17 05:06:36;;;;;;;;;13.50;13.50;;;;;;;;3724908;37;20645;-67
2021/06/17 05:11:47;;;;;;;;;14.00;13.00;;;;;;;;3724639;37;20636;-67
2021/06/17 05:14:14;;;;;;;;;15.25;15.25;;;;;;;;3724862;37;20661;-68
2021/06/17 05:16:42;;;;;;;;;13.00;13.00;;;;;;;;3724959;37;20647;-67
2021/06/17 05:19:08;;;;;;;;;14.00;14.00;;;;;;;;3724329;38;20654;-67
2021/06/17 05:21:33;;;;;;;;;14.25;13.50;;;;;;;;3724543;38;20660;-67
2021/06/17 05:24:01;;;;;;;;;13.75;13.75;;;;;;;;3724850;37;17816;-67
2021/06/17 05:26:29;;;;;;;;;12.25;11.00;;;;;;;;3725160;37;17807;-69
2021/06/17 05:28:55;;;;;;;;;12.25;12.25;;;;;;;;3724821;38;20650;-69
2021/06/17 05:31:23;;;;;;;;;13.00;13.00;;;;;;;;3724816;37;20639;-67
2021/06/17 05:33:50;;;;;;;;;11.50;11.50;;;;;;;;3725333;38;17807;-67
2021/06/17 05:36:17;;;;;;;;;14.25;14.25;;;;;;;;3730346;37;20618;-67
2021/06/17 05:38:44;;;;;;;;;11.75;11.00;;;;;;;;3724514;37;20640;-69
2021/06/17 05:41:11;;;;;;;;;14.25;14.00;;;;;;;;3724919;37;20615;-68
2021/06/17 05:44:00;;;;;;;;;;;;;;;;;;;;;
2021/06/17 05:46:26;;;;;;;;;10.75;10.75;;;;;;;;3725051;38;20608;-69
2021/06/17 05:48:57;;;;;;;;;13.50;13.50;;;;;;;;3725074;38;20595;-68
2021/06/17 05:51:24;;;;;;;;;12.50;12.50;;;;;;;;3726297;38;20557;-69
2021/06/17 05:53:50;;;;;;;;;15.00;15.00;;;;;;;;3724592;37;20524;-68
2021/06/17 05:56:18;;;;;;;;;15.25;15.25;;;;;;;;3724824;37;20611;-68
2021/06/17 05:58:46;;;;;;;;;11.75;11.75;;;;;;;;3724997;38;17784;-68
2021/06/17 06:01:12;;;;;;;;;12.25;12.25;;;;;;;;3724805;38;20603;-67
2021/06/17 06:03:38;;;;;;;;;14.50;14.50;;;;;;;;3724662;37;20633;-66
2021/06/17 06:06:08;;;;;;;;;14.25;13.00;;;;;;;;3725098;38;17787;-65
2021/06/17 06:08:35;;;;;;;;;12.00;12.00;;;;;;;;3724616;38;20603;-68
2021/06/17 06:11:02;;;;;;;;;11.25;11.25;;;;;;;;3724820;37;20596;-68
2021/06/17 06:13:30;;;;;;;;;12.75;12.00;;;;;;;;3724602;38;20564;-67
2021/06/17 06:15:56;;;;;;;;;14.00;13.00;;;;;;;;3724640;37;20578;-66
2021/06/17 06:18:27;;;;;;;;;8.25;8.25;;;;;;;;3724853;37;20561;-64
2021/06/17 06:20:57;;;;;;;;;14.00;14.00;;;;;;;;3724829;38;20459;-65
2021/06/17 06:23:24;;;;;;;;;12.00;11.00;;;;;;;;3724642;38;20601;-69
2021/06/17 06:25:50;;;;;;;;;10.75;10.75;;;;;;;;3724659;37;20534;-66
2021/06/17 06:28:17;;;;;;;;;13.00;13.00;;;;;;;;3724650;37;20562;-66
2021/06/17 06:30:43;;;;;;;;;12.50;12.50;;;;;;;;3724367;37;20572;-64
2021/06/17 06:33:10;;;;;;;;;14.00;14.00;;;;;;;;3724542;37;20539;-64
2021/06/17 06:35:36;;;;;;;;;14.25;14.25;;;;;;;;3724315;37;20581;-65
2021/06/17 06:38:12;;;;;;;;;11.25;10.75;;;;;;;;3725156;37;20585;-64
2021/06/17 06:40:38;;;;;;;;;16.50;15.75;;;;;;;;3724557;37;20529;-63
2021/06/17 06:43:15;;;;;;;;;14.50;14.00;;;;;;;;3724747;37;20471;-64
2021/06/17 06:45:41;;;;;;;;;11.00;11.00;;;;;;;;3724640;37;20528;-64
2021/06/17 06:48:07;;;;;;;;;9.25;9.25;;;;;;;;3724889;38;20512;-64
2021/06/17 06:50:34;;;;;;;;;13.00;13.00;;;;;;;;3724952;37;17693;-66
2021/06/17 06:53:00;;;;;;;;;12.00;11.50;;;;;;;;3724572;37;20522;-64
2021/06/17 06:55:27;;;;;;;;;13.25;13.25;;;;;;;;3724512;37;20520;-66
2021/06/17 06:57:55;;;;;;;;;11.25;11.25;;;;;;;;3724311;37;17668;-64
2021/06/17 07:00:21;;;;;;;;;13.25;13.00;;;;;;;;3724643;38;20517;-65
2021/06/17 07:02:48;;;;;;;;;14.50;14.50;;;;;;;;3724283;37;20529;-65
2021/06/17 07:05:17;;;;;;;;;12.00;12.00;;;;;;;;3724639;38;20505;-66
2021/06/17 07:07:49;;;;;;;;;16.00;16.00;;;;;;;;3724323;37;20405;-66
2021/06/17 07:10:16;;;;;;;;;12.00;12.00;;;;;;;;3724830;37;20532;-65
2021/06/17 07:12:44;;;;;;;;;13.50;13.50;;;;;;;;3724605;37;20496;-65
2021/06/17 07:15:11;;;;;;;;;14.00;14.00;;;;;;;;3724386;37;20487;-67
2021/06/17 07:17:37;;;;;;;;;13.00;13.00;;;;;;;;3724752;38;20405;-65
2021/06/17 07:20:06;;;;;;;;;15.00;14.50;;;;;;;;3724824;38;20477;-64
2021/06/17 07:22:32;;;;;;;;;13.00;13.00;;;;;;;;3724787;38;20497;-65
2021/06/17 07:24:58;;;;;;;;;13.50;12.75;;;;;;;;3724723;37;20486;-66
2021/06/17 07:27:24;;;;;;;;;19.00;19.00;;;;;;;;3724310;37;20493;-65
2021/06/17 07:29:52;;;;;;;;;15.00;13.25;;;;;;;;3725002;38;17645;-66
2021/06/17 07:32:18;;;;;;;;;16.50;16.00;;;;;;;;3724776;38;17645;-66
2021/06/17 07:34:46;;;;;;;;;16.25;15.75;;;;;;;;3724921;37;20488;-66
2021/06/17 07:37:12;;;;;;;;;15.00;15.00;;;;;;;;3723959;37;20415;-65
2021/06/17 07:39:38;;;;;;;;;16.00;16.00;;;;;;;;3724744;37;20483;-65
2021/06/17 07:42:07;;;;;;;;;17.25;17.25;;;;;;;;3724816;38;21449;-66
2021/06/17 07:44:34;;;;;;;;;15.75;15.75;;;;;;;;3724942;37;20364;-66
2021/06/17 07:46:59;;;;;;;;;17.25;16.75;;;;;;;;3724918;38;20461;-68
2021/06/17 07:49:28;;;;;;;;;12.75;12.75;;;;;;;;3727504;38;20455;-67
2021/06/17 07:51:58;;;;;;;;;13.00;13.00;;;;;;;;3727732;38;18609;-67
2021/06/17 07:54:24;;;;;;;;;15.75;15.25;;;;;;;;3725561;37;21428;-68
2021/06/17 07:56:51;;;;;;;;;14.75;14.75;;;;;;;;3724799;38;21431;-67
2021/06/17 07:59:18;;;;;;;;;15.00;14.00;;;;;;;;3724390;37;21434;-66
2021/06/17 08:01:48;;;;;;;;;18.50;14.00;;;;;;;;3724867;37;21347;-67
2021/06/17 08:04:14;;;;;;;;;14.00;14.00;;;;;;;;3725154;37;21382;-66
2021/06/17 08:06:41;;;;;;;;;17.00;17.00;;;;;;;;3725471;37;21433;-67
2021/06/17 08:09:06;;;;;;;;;16.00;16.00;;;;;;;;3724929;37;21383;-66
2021/06/17 08:11:34;;;;;;;;;14.50;14.50;;;;;;;;3725342;37;21326;-67
2021/06/17 08:14:01;;;;;;;;;17.25;17.25;;;;;;;;3725071;37;21391;-69
2021/06/17 08:16:28;;;;;;;;;12.25;12.25;;;;;;;;3724952;37;21334;-66
2021/06/17 08:18:55;;;;;;;;;15.25;15.25;;;;;;;;3724828;38;21344;-68
2021/06/17 08:21:24;;;;;;;;;13.00;13.00;;;;;;;;3724458;38;21409;-67
2021/06/17 08:23:54;;;;;;;;;15.00;14.00;;;;;;;;3724295;38;21386;-67
2021/06/17 08:26:20;;;;;;;;;12.75;12.75;;;;;;;;3725110;38;21397;-67
2021/06/17 08:28:47;;;;;;;;;15.50;14.75;;;;;;;;3724307;37;21393;-67
2021/06/17 08:31:14;;;;;;;;;14.00;14.00;;;;;;;;3724643;37;21414;-66
2021/06/17 08:33:41;;;;;;;;;13.25;13.25;;;;;;;;3724936;37;21408;-67
2021/06/17 08:36:08;;;;;;;;;14.00;14.00;;;;;;;;3724701;38;18543;-66
2021/06/17 08:38:36;;;;;;;;;15.00;15.00;;;;;;;;3724651;37;21386;-66
2021/06/17 08:41:04;;;;;;;;;14.75;13.00;;;;;;;;3724803;37;21369;-67
2021/06/17 08:43:32;;;;;;;;;14.75;14.00;;;;;;;;3724870;37;21452;-66
2021/06/17 08:45:59;;;;;;;;;12.00;12.00;;;;;;;;3724569;37;21370;-66
2021/06/17 08:48:25;;;;;;;;;11.00;11.00;;;;;;;;3724888;37;21372;-67
2021/06/17 08:50:54;;;;;;;;;9.50;9.50;;;;;;;;3726079;37;21361;-66
2021/06/17 08:53:20;;;;;;;;;9.00;9.00;;;;;;;;3724901;37;21242;-65
2021/06/17 08:55:54;;;;;;;;;8.00;7.25;;;;;;;;3724836;37;21308;-67
2021/06/17 08:58:20;;;;;;;;;7.00;6.25;;;;;;;;3724422;37;21310;-68
2021/06/17 09:00:47;;;;;;;;;9.75;9.75;;;;;;;;3724900;37;21300;-69
2021/06/17 09:03:18;;;;;;;;;9.25;8.75;;;;;;;;3725215;38;18502;-67
2021/06/17 09:05:55;;;;;;;;;7.75;7.75;;;;;;;;3724311;38;21298;-68
2021/06/17 09:08:31;;;;;;;;;7.00;7.00;;;;;;;;3724811;37;21267;-67
2021/06/17 09:10:57;;;;;;;;;5.50;5.50;;;;;;;;3724607;37;21293;-67
2021/06/17 09:13:34;;;;;;;;;5.25;5.25;;;;;;;;3724639;38;21294;-67
2021/06/17 09:16:02;;;;;;;;;7.50;7.50;;;;;;;;3724278;38;21289;-68
2021/06/17 09:18:35;;;;;;;;;6.00;6.00;;;;;;;;3724548;38;21284;-67
2021/06/17 09:21:09;;;;;;;;;6.25;6.25;;;;;;;;3724559;37;21353;-66
2021/06/17 09:23:43;;;;;;;;;6.25;6.00;;;;;;;;3724187;38;21308;-67
2021/06/17 09:26:20;;;;;;;;;5.25;5.25;;;;;;;;3724584;37;21312;-66
2021/06/17 09:28:54;;;;;;;;;6.25;6.25;;;;;;;;3724522;37;21298;-67
2021/06/17 09:31:24;;;;;;;;;6.00;6.00;;;;;;;;3724137;37;21292;-68
2021/06/17 09:33:51;;;;;;;;;6.00;6.00;;;;;;;;3724625;37;21265;-66
2021/06/17 09:36:21;;;;;;;;;5.00;5.00;;;;;;;;3724785;38;21269;-67
2021/06/17 09:38:48;;;;;;;;;5.50;5.50;;;;;;;;3724212;37;21266;-67
2021/06/17 09:41:31;;;;;;;;;4.00;4.00;;;;;;;;3724648;38;21269;-67
2021/06/17 09:43:57;;;;;;;;;5.00;5.00;;;;;;;;3724700;38;21271;-66
2021/06/17 09:46:23;;;;;;;;;7.25;7.25;;;;;;;;3724479;38;21256;-68
2021/06/17 09:48:50;;;;;;;;;6.00;6.00;;;;;;;;3724976;38;21248;-67
2021/06/17 09:51:36;;;;;;;;;6.00;6.00;;;;;;;;3724732;37;21250;-68
2021/06/17 09:54:32;;;;;;;;;5.50;5.50;;;;;;;;3724990;38;21256;-69
2021/06/17 09:57:00;;;;;;;;;7.00;7.00;;;;;;;;3725910;38;21264;-68
2021/06/17 09:59:37;;;;;;;;;7.00;7.00;;;;;;;;3725091;38;21227;-67
2021/06/17 10:02:07;;;;;;;;;8.00;8.00;;;;;;;;3731860;37;21260;-67
2021/06/17 10:04:38;;;;;;;;;6.25;6.25;;;;;;;;3741130;37;21256;-68
2021/06/17 10:07:08;;;;;;;;;9.25;9.25;;;;;;;;3740531;37;21235;-68
2021/06/17 10:09:35;;;;;;;;;8.00;8.00;;;;;;;;3734217;38;21200;-67
2021/06/17 10:12:02;;;;;;;;;5.50;5.50;;;;;;;;3725026;38;21209;-69
2021/06/17 10:14:28;;;;;;;;;8.00;8.00;;;;;;;;3724916;38;21204;-68
2021/06/17 10:16:55;;;;;;;;;9.50;9.50;;;;;;;;3725517;38;21188;-70
2021/06/17 10:19:25;;;;;;;;;10.75;10.50;;;;;;;;3725172;37;21205;-68
2021/06/17 10:21:53;;;;;;;;;8.75;8.75;;;;;;;;3725567;37;21217;-69
2021/06/17 10:24:23;;;;;;;;;7.75;7.25;;;;;;;;3724784;38;21206;-71
2021/06/17 10:26:51;;;;;;;;;9.75;9.75;;;;;;;;3724746;38;21189;-69
2021/06/17 10:29:49;;;;;;;;;9.75;9.75;;;;;;;;3728092;37;21186;-68
2021/06/17 10:32:16;;;;;;;;;7.00;7.00;;;;;;;;3727143;37;21238;-68
2021/06/17 10:34:47;;;;;;;;;10.00;10.00;;;;;;;;3725523;38;21178;-68
2021/06/17 10:37:30;;;;;;;;;9.25;9.25;;;;;;;;3724659;37;21226;-69
2021/06/17 10:40:19;;;;;;;;;8.75;8.75;;;;;;;;3725399;37;21162;-68
2021/06/17 10:42:48;;;;;;;;;10.50;10.50;;;;;;;;3726529;38;21157;-68
2021/06/17 10:45:53;;;;;;;;;11.25;11.25;;;;;;;;3725295;37;21216;-68
2021/06/17 10:48:27;;;;;;;;;12.75;11.50;;;;;;;;3725008;38;21231;-67
2021/06/17 10:51:13;;;;;;;;;11.00;10.75;;;;;;;;3725068;38;21193;-67
2021/06/17 10:53:44;;;;;;;;;7.00;7.00;;;;;;;;3725047;38;21182;-70
2021/06/17 10:56:23;;;;;;;;;11.00;11.00;;;;;;;;3724951;37;21056;-68
2021/06/17 10:58:54;;;;;;;;;9.00;9.00;;;;;;;;3724585;38;21209;-67
2021/06/17 11:01:25;;;;;;;;;11.50;11.50;;;;;;;;3724778;38;21075;-67
2021/06/17 11:04:05;;;;;;;;;11.00;11.00;;;;;;;;3724566;37;21129;-68
2021/06/17 11:07:10;;;;;;;;;12.75;12.75;;;;;;;;3724641;37;21200;-65
2021/06/17 11:10:01;;;;;;;;;12.00;12.00;;;;;;;;3724927;37;21176;-67
2021/06/17 11:12:47;;;;;;;;;13.00;12.00;;;;;;;;3724707;38;21231;-68
2021/06/17 11:15:32;;;;;;;;;11.00;11.00;;;;;;;;3724794;38;21185;-68
2021/06/17 11:18:01;;;;;;;;;10.00;10.00;;;;;;;;3724740;38;21194;-67
2021/06/17 11:20:35;;;;;;;;;9.00;9.00;;;;;;;;3724376;37;21166;-67
2021/06/17 11:23:03;;;;;;;;;11.25;10.50;;;;;;;;3724657;37;21097;-67
2021/06/17 11:25:30;;;;;;;;;9.50;9.50;;;;;;;;3724645;38;21152;-67
2021/06/17 11:28:14;;;;;;;;;9.00;9.00;;;;;;;;3724764;37;21086;-67
2021/06/17 11:31:00;;;;;;;;;11.67;11.67;;;;;;;;3724667;37;21098;-68
2021/06/17 11:33:39;;;;;;;;;15.00;14.00;;;;;;;;3724631;38;21167;-67
2021/06/17 11:36:06;;;;;;;;;5.00;3.50;;;;;;;;3724537;38;21156;-67
2021/06/17 11:38:36;;;;;;;;;11.00;11.00;;;;;;;;3724626;37;21001;-67
2021/06/17 11:41:15;;;;;;;;;8.50;8.50;;;;;;;;3724706;37;21120;-68
2021/06/17 11:43:42;;;;;;;;;4.25;4.25;;;;;;;;3724606;37;21100;-64
2021/06/17 11:46:18;;;;;;;;;6.00;6.00;;;;;;;;3724579;38;21086;-65
2021/06/17 11:48:52;;;;;;;;;6.50;6.00;;;;;;;;3725942;38;21059;-64
2021/06/17 11:51:18;;;;;;;;;7.50;7.50;;;;;;;;3724937;38;21006;-67
2021/06/17 11:53:47;;;;;;;;;11.50;10.00;;;;;;;;3724788;38;21090;-70
2021/06/17 11:56:22;;;;;;;;;11.75;11.00;;;;;;;;3724878;38;18285;-69
2021/06/17 11:58:54;;;;;;;;;10.75;10.75;;;;;;;;3724810;38;21111;-70
2021/06/17 12:01:21;;;;;;;;;10.50;10.50;;;;;;;;3724444;38;21111;-67
2021/06/17 12:03:57;;;;;;;;;14.25;14.25;;;;;;;;3724372;38;21152;-67
2021/06/17 12:06:24;;;;;;;;;11.50;11.00;;;;;;;;3724842;37;21106;-68
2021/06/17 12:09:06;;;;;;;;;14.00;14.00;;;;;;;;3724633;37;21094;-67
2021/06/17 12:11:32;;;;;;;;;12.00;11.25;;;;;;;;3724759;37;21095;-67
2021/06/17 12:13:58;;;;;;;;;12.00;12.00;;;;;;;;3724658;37;21086;-67
2021/06/17 12:16:24;;;;;;;;;10.25;10.25;;;;;;;;3724809;37;21103;-68
2021/06/17 12:18:51;;;;;;;;;13.00;13.00;;;;;;;;3725193;37;21098;-66
2021/06/17 12:21:31;;;;;;;;;12.00;12.00;;;;;;;;3728023;37;18266;-66
2021/06/17 12:23:57;;;;;;;;;15.00;14.75;;;;;;;;3724800;37;21090;-66
2021/06/17 12:26:30;;;;;;;;;14.00;14.00;;;;;;;;3724987;37;21098;-66
2021/06/17 12:29:01;;;;;;;;;14.00;14.00;;;;;;;;3724940;38;21095;-66
2021/06/17 12:31:36;;;;;;;;;13.75;13.75;;;;;;;;3724846;37;21169;-67
2021/06/17 12:34:13;;;;;;;;;15.50;15.25;;;;;;;;3725168;38;21063;-67
2021/06/17 12:36:43;;;;;;;;;12.25;12.25;;;;;;;;3725136;37;21091;-67
2021/06/17 12:39:13;;;;;;;;;12.50;12.50;;;;;;;;3725726;37;21081;-66
2021/06/17 12:41:42;;;;;;;;;15.25;15.25;;;;;;;;3725215;38;21088;-66
2021/06/17 12:44:08;;;;;;;;;17.00;17.00;;;;;;;;3724947;38;21082;-67
2021/06/17 12:46:38;;;;;;;;;19.00;19.00;;;;;;;;3725042;37;21062;-67
2021/06/17 12:49:16;;;;;;;;;15.50;15.50;;;;;;;;3724980;37;20970;-67
2021/06/17 12:54:40;;;;;;;;;15.25;14.50;;;;;;;;3724989;38;20986;-65
2021/06/17 12:57:13;;;;;;;;;17.25;17.00;;;;;;;;3724926;38;21144;-65
2021/06/17 12:59:57;;;;;;;;;19.00;18.50;;;;;;;;3724970;38;20967;-63
2021/06/17 13:02:46;;;;;;;;;19.75;19.25;;;;;;;;3724980;37;21077;-64
2021/06/17 13:05:29;;;;;;;;;19.25;19.25;;;;;;;;3725289;37;21131;-64
2021/06/17 13:08:06;;;;;;;;;19.25;19.25;;;;;;;;3724898;38;20934;-65
2021/06/17 13:10:40;;;;;;;;;20.50;19.50;;;;;;;;3724972;37;21043;-64
2021/06/17 13:13:17;;;;;;;;;19.00;19.00;;;;;;;;3728521;37;20962;-65
2021/06/17 13:15:43;;;;;;;;;23.75;22.50;;;;;;;;3725146;37;20950;-65
2021/06/17 13:18:12;;;;;;;;;20.75;20.75;;;;;;;;3724964;37;20949;-65
2021/06/17 13:20:42;;;;;;;;;18.50;18.50;;;;;;;;3724765;37;20945;-65
2021/06/17 13:23:17;;;;;;;;;19.75;19.75;;;;;;;;3724740;37;20911;-65
2021/06/17 13:25:45;;;;;;;;;20.75;20.25;;;;;;;;3726168;38;20940;-65
2021/06/17 13:28:44;;;;;;;;;20.00;20.00;;;;;;;;3724423;38;20936;-65
2021/06/17 13:31:35;;;;;;;;;19.00;19.00;;;;;;;;3724901;37;20937;-66
2021/06/17 13:34:06;;;;;;;;;19.50;19.50;;;;;;;;3724941;38;20923;-66
2021/06/17 13:36:34;;;;;;;;;21.50;20.75;;;;;;;;3725235;37;20921;-66
2021/06/17 13:39:00;;;;;;;;;18.50;18.50;;;;;;;;3724629;37;20913;-67
2021/06/17 13:41:27;;;;;;;;;21.00;19.75;;;;;;;;3725437;37;21176;-64
2021/06/17 13:43:53;;;;;;;;;19.50;19.50;;;;;;;;3724825;38;20918;-66
2021/06/17 13:46:19;;;;;;;;;23.00;22.00;;;;;;;;3724856;38;20912;-66
2021/06/17 13:48:49;;;;;;;;;23.25;23.25;;;;;;;;3725141;38;18153;-67
2021/06/17 13:51:16;;;;;;;;;19.50;19.50;;;;;;;;3725586;38;18158;-67
2021/06/17 13:53:48;;;;;;;;;23.00;22.00;;;;;;;;3724833;38;20905;-66
2021/06/17 13:56:15;;;;;;;;;19.00;19.00;;;;;;;;3725093;38;20882;-66
2021/06/17 13:58:42;;;;;;;;;18.00;17.25;;;;;;;;3724977;38;20861;-66
2021/06/17 14:01:11;;;;;;;;;21.50;20.00;;;;;;;;3725169;38;20861;-66
2021/06/17 14:03:39;;;;;;;;;17.00;16.25;;;;;;;;3724999;37;20872;-66
2021/06/17 14:06:06;;;;;;;;;15.75;15.00;;;;;;;;3725138;38;20975;-67
2021/06/17 14:08:34;;;;;;;;;17.00;16.00;;;;;;;;3725063;37;20948;-68
2021/06/17 14:11:02;;;;;;;;;17.50;17.00;;;;;;;;3725180;37;20954;-67
2021/06/17 14:13:28;;;;;;;;;14.00;14.00;;;;;;;;3725624;37;20886;-67
2021/06/17 14:15:54;;;;;;;;;16.75;16.75;;;;;;;;3724835;37;21071;-68
2021/06/17 14:18:21;;;;;;;;;17.25;16.50;;;;;;;;3724175;37;20976;-68
2021/06/17 14:20:47;;;;;;;;;19.00;19.00;;;;;;;;3724233;38;20951;-66
2021/06/17 14:23:13;;;;;;;;;26.50;26.50;;;;;;;;3724792;37;20858;-67
2021/06/17 14:25:48;;;;;;;;;21.75;20.75;;;;;;;;3725618;37;18092;-67
2021/06/17 14:28:16;;;;;;;;;21.75;18.00;;;;;;;;3724599;37;18095;-67
2021/06/17 14:30:46;;;;;;;;;17.75;17.75;;;;;;;;3724547;37;20836;-66
2021/06/17 14:33:12;;;;;;;;;19.00;19.00;;;;;;;;3724657;38;20858;-66
2021/06/17 14:35:41;;;;;;;;;17.25;17.25;;;;;;;;3724471;37;20835;-69
2021/06/17 14:38:07;;;;;;;;;17.00;17.00;;;;;;;;3724780;38;18099;-67
2021/06/17 14:40:39;;;;;;;;;16.25;16.25;;;;;;;;3724713;38;20915;-67
2021/06/17 14:43:05;;;;;;;;;17.75;17.75;;;;;;;;3725054;38;20932;-66
2021/06/17 14:45:32;;;;;;;;;18.50;18.50;;;;;;;;3725263;37;20830;-67
2021/06/17 14:47:58;;;;;;;;;19.00;18.25;;;;;;;;3724851;38;20796;-66
2021/06/17 14:50:25;;;;;;;;;18.00;18.00;;;;;;;;3726392;37;20835;-66
2021/06/17 14:52:51;;;;;;;;;17.50;17.50;;;;;;;;3726129;38;20805;-65